Date,TemperatureHighF,TemperatureAvgF,TemperatureLowF,DewpointHighF,DewpointAvgF,DewpointLowF,HumidityHigh,HumidityAvg,HumidityLow,PressureMaxIn,PressureMinIn,WindSpeedMaxMPH,WindSpeedAvgMPH,GustSpeedMaxMPH,PrecipitationSumIn
2013-9-1,88.6,78.9,72.4,76.7,72.9,70.1,96,83,55,29.93,29.84,4,1,11,0.00
2013-9-2,83.8,74.4,68.2,73.7,70.7,67.2,98,89,68,30.01,29.85,7,1,9,2.24
2013-9-3,85.0,75.5,66.4,74.9,70.2,65.3,98,85,57,30.00,29.90,4,1,9,0.00
2013-9-4,83.6,72.1,63.8,69.8,65.9,63.1,99,83,54,30.12,29.99,4,1,8,0.00
2013-9-5,83.3,71.5,61.8,70.3,65.6,61.4,99,84,51,30.17,30.09,3,1,8,0.00
2013-9-6,85.7,73.1,63.9,73.5,67.5,63.3,99,84,57,30.16,30.05,4,1,6,0.01
2013-9-7,85.7,74.5,67.1,73.4,69.6,66.3,99,86,59,30.11,30.00,4,0,4,0.00
2013-9-8,87.4,75.6,65.0,75.1,69.7,64.4,98,83,58,30.03,29.95,2,0,6,0.00
2013-9-9,87.7,76.6,68.4,76.4,71.4,67.8,99,85,59,30.09,30.00,4,0,6,0.00
2013-9-10,86.3,77.2,70.1,76.4,71.4,68.9,97,84,58,30.18,30.09,6,1,8,0.00
2013-9-11,86.3,75.2,66.5,73.8,68.9,65.4,99,83,53,30.21,30.09,4,1,8,0.00
2013-9-12,87.6,75.7,65.0,72.3,68.4,64.1,98,80,53,30.09,29.92,6,1,8,0.04
2013-9-13,81.1,71.0,61.7,69.3,62.7,54.0,99,77,44,29.96,29.89,5,2,11,0.01
2013-9-14,75.3,62.5,51.4,61.1,55.5,50.5,97,80,51,30.07,29.96,5,1,8,0.00
2013-9-15,80.7,67.2,58.5,67.8,62.0,57.4,98,85,48,30.14,30.07,6,1,13,0.00
2013-9-16,82.6,69.7,59.7,69.8,63.1,59.4,99,82,48,30.17,30.09,5,1,7,0.00
2013-9-17,82.4,71.9,63.5,71.2,66.0,61.1,93,82,66,30.18,30.09,5,3,11,0.00
2013-9-18,79.7,70.6,64.0,69.1,64.6,60.4,93,82,67,30.20,30.09,7,3,11,0.00
2013-9-19,81.5,71.1,62.9,69.4,65.2,61.3,96,83,63,30.18,30.05,6,1,9,0.00
2013-9-20,84.1,73.6,63.8,69.7,66.1,62.1,95,79,56,30.06,29.85,6,2,9,0.02
2013-9-21,71.5,67.0,56.7,70.8,65.5,55.6,98,95,88,29.85,29.74,6,2,10,2.12
2013-9-22,74.9,61.7,51.3,60.8,55.5,50.7,99,82,47,29.92,29.83,7,2,11,0.00
2013-9-23,78.6,65.5,54.4,65.6,59.7,53.8,99,83,54,29.99,29.91,5,1,10,0.01
2013-9-24,69.7,66.3,61.2,67.3,64.6,60.1,98,94,91,29.99,29.86,6,2,13,0.00
2013-9-25,74.9,67.7,64.5,69.3,65.8,63.5,98,94,81,29.88,29.81,4,1,8,0.16
2013-9-26,77.3,67.8,62.6,66.5,63.6,61.4,98,87,64,30.02,29.87,4,1,7,0.00
2013-9-27,77.7,67.2,59.7,67.5,61.4,56.0,99,84,49,30.14,30.01,5,1,8,0.00
2013-9-28,75.6,64.6,55.7,62.1,58.5,55.1,98,82,54,30.22,30.10,7,2,10,0.01
2013-9-29,73.6,63.5,53.6,62.4,57.6,52.8,97,82,60,30.14,30.02,6,2,11,0.00
2013-9-30,73.9,64.7,59.7,63.7,59.8,57.4,97,84,67,30.09,29.99,4,1,9,0.00